createdAt,value
2023-02-16T00:01:44.297Z,102089.31
2023-02-16T00:04:18.829Z,102090.75
2023-02-16T00:06:46.698Z,102084.41
2023-02-16T00:09:14.752Z,102086.81
2023-02-16T00:12:01.533Z,102072.56
2023-02-16T00:14:29.564Z,102067.91
2023-02-16T00:16:59.167Z,102065.84
2023-02-16T00:19:28.382Z,102064.88
2023-02-16T00:21:58.228Z,102068.25
2023-02-16T00:24:27.230Z,102061.31
2023-02-16T00:26:56.922Z,102062.97
2023-02-16T00:29:28.249Z,102061.31
2023-02-16T00:31:57.084Z,102063.19
2023-02-16T00:34:31.284Z,102060.69
2023-02-16T00:37:00.188Z,102049.31
2023-02-16T00:39:28.505Z,102047.66
2023-02-16T00:42:01.145Z,102046.19
2023-02-16T00:44:33.500Z,102046.28
2023-02-16T00:47:04.116Z,102036.72
2023-02-16T00:49:31.911Z,102051.69
2023-02-16T00:51:59.646Z,102057.22
2023-02-16T00:54:27.253Z,102058.28
2023-02-16T00:56:54.881Z,102049.63
2023-02-16T00:59:24.261Z,102049.75
2023-02-16T01:01:52.027Z,102046.53
2023-02-16T01:04:24.046Z,102051.19
2023-02-16T01:07:08.995Z,102045.44
2023-02-16T01:09:54.433Z,102052.00
2023-02-16T01:12:22.921Z,102047.91
2023-02-16T01:14:55.629Z,102044.66
2023-02-16T01:17:24.267Z,102041.44
2023-02-16T01:19:51.879Z,102034.72
2023-02-16T01:22:19.482Z,102043.78
2023-02-16T01:24:47.068Z,102040.31
2023-02-16T01:27:15.076Z,102036.97
2023-02-16T01:29:42.977Z,102047.84
2023-02-16T01:32:13.911Z,102041.75
2023-02-16T01:34:42.189Z,102045.31
2023-02-16T01:37:15.962Z,102047.09
2023-02-16T01:39:43.704Z,102050.59
2023-02-16T01:42:19.209Z,102051.53
2023-02-16T01:44:50.760Z,102040.28
2023-02-16T01:47:33.984Z,102036.19
2023-02-16T01:50:03.560Z,102038.94
2023-02-16T01:52:35.755Z,102037.25
2023-02-16T01:55:08.906Z,102039.88
2023-02-16T01:57:43.759Z,102043.38
2023-02-16T02:00:16.365Z,102045.16
2023-02-16T02:02:49.706Z,102041.56
2023-02-16T02:05:35.084Z,102045.78
2023-02-16T02:08:11.531Z,102054.53
2023-02-16T02:10:47.313Z,102047.47
2023-02-16T02:13:22.411Z,102050.94
2023-02-16T02:15:50.281Z,102048.19
2023-02-16T02:18:19.325Z,102044.59
2023-02-16T02:21:27.522Z,102037.53
2023-02-16T02:24:16.991Z,102039.44
2023-02-16T02:27:03.680Z,102035.16
2023-02-16T02:30:07.185Z,102038.00
2023-02-16T02:32:56.589Z,102026.50
2023-02-16T02:35:38.063Z,102022.19
2023-02-16T02:38:13.394Z,102028.41
2023-02-16T02:40:55.924Z,102017.97
2023-02-16T02:43:29.655Z,102022.44
2023-02-16T02:46:00.465Z,102025.06
2023-02-16T02:48:31.761Z,102014.53
2023-02-16T02:51:18.794Z,102009.50
2023-02-16T02:54:12.661Z,102005.41
2023-02-16T02:57:01.203Z,102006.25
2023-02-16T02:59:49.787Z,102014.22
2023-02-16T03:02:18.808Z,102006.34
2023-02-16T03:04:48.031Z,101999.41
2023-02-16T03:07:16.239Z,102003.00
2023-02-16T03:09:44.301Z,101992.59
2023-02-16T03:12:31.959Z,101988.25
2023-02-16T03:15:03.679Z,101973.53
2023-02-16T03:17:53.459Z,101977.13
2023-02-16T03:20:39.321Z,101984.28
2023-02-16T03:23:25.695Z,101977.13
2023-02-16T03:26:11.767Z,101977.97
2023-02-16T03:29:00.197Z,101974.38
2023-02-16T03:31:34.679Z,101975.09
2023-02-16T03:34:03.552Z,101979.41
2023-02-16T03:36:36.605Z,101972.34
2023-02-16T03:39:05.714Z,101973.09
2023-02-16T03:41:34.777Z,101980.13
2023-02-16T03:44:02.404Z,101977.38
2023-02-16T03:46:32.051Z,101981.81
2023-02-16T03:48:59.654Z,101972.84
2023-02-16T03:51:27.398Z,101963.16
2023-02-16T03:53:55.023Z,101965.66
2023-02-16T03:56:22.692Z,101955.13
2023-02-16T03:58:50.260Z,101950.81
2023-02-16T04:01:17.923Z,101949.03
2023-02-16T04:03:46.862Z,101939.47
2023-02-16T04:06:14.517Z,101937.66
2023-02-16T04:08:42.117Z,101956.06
2023-02-16T04:11:23.703Z,101957.91
2023-02-16T04:13:51.362Z,101953.34
2023-02-16T04:16:19.046Z,101939.94
2023-02-16T04:18:47.990Z,101943.53
2023-02-16T04:21:15.583Z,101953.97
2023-02-16T04:23:43.892Z,101943.44
2023-02-16T04:26:11.467Z,101945.09
2023-02-16T04:28:39.078Z,101954.78
2023-02-16T04:31:07.219Z,101960.03
2023-02-16T04:33:35.017Z,101956.59
2023-02-16T04:36:04.014Z,101947.84
2023-02-16T04:38:31.591Z,101943.53
2023-02-16T04:40:59.213Z,101952.28
2023-02-16T04:43:26.957Z,101947.84
2023-02-16T04:45:54.632Z,101940.78
2023-02-16T04:48:22.260Z,101964.50
2023-02-16T04:50:49.867Z,101956.38
2023-02-16T04:53:18.979Z,101966.53
2023-02-16T04:55:47.581Z,101954.81
2023-02-16T04:58:15.331Z,101957.09
2023-02-16T05:00:43.599Z,101963.09
2023-02-16T05:03:11.206Z,101968.13
2023-02-16T05:05:38.927Z,101953.66
2023-02-16T05:08:07.026Z,101955.22
2023-02-16T05:10:35.982Z,101958.56
2023-02-16T05:13:21.306Z,101952.22
2023-02-16T05:15:48.971Z,101960.72
2023-02-16T05:18:16.559Z,101951.75
2023-02-16T05:21:01.958Z,101950.66
2023-02-16T05:23:29.713Z,101954.88
2023-02-16T05:25:58.694Z,101955.59
2023-02-16T05:28:26.347Z,101958.09
2023-02-16T05:30:55.126Z,101946.59
2023-02-16T05:33:22.752Z,101953.44
2023-02-16T05:35:50.380Z,101941.09
2023-02-16T05:38:17.986Z,101948.91
2023-02-16T05:40:45.562Z,101940.84
2023-02-16T05:43:14.490Z,101942.41
2023-02-16T05:45:42.060Z,101941.31
2023-02-16T05:48:09.624Z,101937.50
2023-02-16T05:50:37.586Z,101940.84
2023-02-16T05:53:05.249Z,101943.38
2023-02-16T05:55:32.884Z,101939.66
2023-02-16T05:58:00.469Z,101932.47
2023-02-16T06:00:33.395Z,101938.47
2023-02-16T06:03:01.060Z,101950.56
2023-02-16T06:05:28.740Z,101948.53
2023-02-16T06:07:56.295Z,101958.09
2023-02-16T06:10:23.979Z,101943.81
2023-02-16T06:12:51.557Z,101950.69
2023-02-16T06:15:19.460Z,101952.34
2023-02-16T06:17:48.405Z,101951.50
2023-02-16T06:20:15.977Z,101947.91
2023-02-16T06:22:43.594Z,101943.47
2023-02-16T06:25:11.271Z,101945.97
2023-02-16T06:27:38.898Z,101935.19
2023-02-16T06:30:08.648Z,101933.28
2023-02-16T06:32:36.571Z,101934.59
2023-02-16T06:35:05.839Z,101939.50
2023-02-16T06:37:33.490Z,101939.13
2023-02-16T06:40:01.066Z,101940.53
2023-02-16T06:42:28.623Z,101938.75
2023-02-16T06:44:56.266Z,101940.91
2023-02-16T06:47:23.875Z,101942.34
2023-02-16T06:49:51.468Z,101927.81
2023-02-16T06:52:20.577Z,101928.25
2023-02-16T06:54:48.207Z,101921.78
2023-02-16T06:57:15.818Z,101930.41
2023-02-16T06:59:43.439Z,101926.56
2023-02-16T07:02:11.384Z,101929.91
2023-02-16T07:04:38.976Z,101934.22
2023-02-16T07:07:06.673Z,101934.09
2023-02-16T07:09:37.202Z,101932.28
2023-02-16T07:12:05.113Z,101933.03
2023-02-16T07:14:33.305Z,101928.56
2023-02-16T07:17:04.171Z,101933.56
2023-02-16T07:19:32.971Z,101932.78
2023-02-16T07:22:00.773Z,101937.78
2023-02-16T07:24:28.710Z,101935.84
2023-02-16T07:26:57.648Z,101933.66
2023-02-16T07:29:25.224Z,101926.47
2023-02-16T07:31:53.461Z,101923.59
2023-02-16T07:34:22.142Z,101925.97
2023-02-16T07:36:50.755Z,101919.59
2023-02-16T07:39:18.396Z,101918.34
2023-02-16T07:41:46.006Z,101914.25
2023-02-16T07:44:15.017Z,101919.13
2023-02-16T07:46:42.606Z,101928.47
2023-02-16T07:49:10.178Z,101920.28
2023-02-16T07:51:37.783Z,101931.31
2023-02-16T07:54:05.345Z,101933.56
2023-02-16T07:56:34.934Z,101940.41
2023-02-16T07:59:04.241Z,101935.13
2023-02-16T08:01:34.381Z,101937.63
2023-02-16T08:04:02.005Z,101936.28
2023-02-16T08:06:29.729Z,101936.13
2023-02-16T08:08:58.033Z,101939.34
2023-02-16T08:11:26.503Z,101945.22
2023-02-16T08:13:54.118Z,101930.22
2023-02-16T08:16:23.979Z,101935.09
2023-02-16T08:18:53.681Z,101941.66
2023-02-16T08:21:23.740Z,101936.25
2023-02-16T08:23:54.808Z,101940.16
2023-02-16T08:26:24.367Z,101938.38
2023-02-16T08:28:52.630Z,101937.13
2023-02-16T08:31:23.043Z,101938.84
2023-02-16T08:33:53.536Z,101937.91
2023-02-16T08:36:23.548Z,101947.69
2023-02-16T08:38:52.131Z,101945.09
2023-02-16T08:41:20.957Z,101935.81
2023-02-16T08:43:49.560Z,101934.56
2023-02-16T08:46:18.022Z,101935.88
2023-02-16T08:48:45.988Z,101928.25
2023-02-16T08:51:18.408Z,101928.38
2023-02-16T08:53:46.670Z,101937.44
2023-02-16T08:56:16.644Z,101933.94
2023-02-16T08:58:44.406Z,101940.63
2023-02-16T09:01:12.751Z,101945.47
2023-02-16T09:03:42.700Z,101937.91
2023-02-16T09:06:12.360Z,101937.78
2023-02-16T09:08:41.976Z,101931.19
2023-02-16T09:11:13.240Z,101938.00
2023-02-16T09:13:41.916Z,101940.25
2023-02-16T09:16:11.899Z,101948.31
2023-02-16T09:18:40.891Z,101935.13
2023-02-16T09:21:11.612Z,101948.31
2023-02-16T09:23:40.150Z,101946.13
2023-02-16T09:26:11.040Z,101944.72
2023-02-16T09:28:39.882Z,101948.09
2023-02-16T09:31:12.311Z,101939.00
2023-02-16T09:33:41.426Z,101940.53
2023-02-16T09:36:11.698Z,101938.28
2023-02-16T09:38:40.519Z,101939.66
2023-02-16T09:41:15.345Z,101943.28
2023-02-16T09:43:49.789Z,101948.31
2023-02-16T09:46:22.689Z,101942.44
2023-02-16T09:48:51.291Z,101935.50
2023-02-16T09:51:33.819Z,101948.59
2023-02-16T09:54:14.250Z,101947.53
2023-02-16T09:56:50.271Z,101945.69
2023-02-16T09:59:36.556Z,101945.69
2023-02-16T10:02:23.551Z,101952.53
2023-02-16T10:05:04.344Z,101958.66
2023-02-16T10:07:41.377Z,101953.91
2023-02-16T10:10:12.764Z,101955.06
2023-02-16T10:12:55.773Z,101944.44
2023-02-16T10:15:27.850Z,101944.03
2023-02-16T10:17:58.761Z,101941.09
2023-02-16T10:20:32.585Z,101942.50
2023-02-16T10:23:08.265Z,101941.94
2023-02-16T10:25:42.630Z,101943.22
2023-02-16T10:28:17.494Z,101952.84
2023-02-16T10:30:51.553Z,101949.50
2023-02-16T10:33:33.850Z,101947.16
2023-02-16T10:36:04.174Z,101949.63
2023-02-16T10:38:38.362Z,101954.25
2023-02-16T10:41:17.831Z,101958.44
2023-02-16T10:43:53.996Z,101966.94
2023-02-16T10:46:24.800Z,101962.59
2023-02-16T10:48:54.672Z,101963.56
2023-02-16T10:51:27.979Z,101959.28
2023-02-16T10:54:00.542Z,101953.53
2023-02-16T10:56:42.359Z,101957.59
2023-02-16T10:59:17.630Z,101962.22
2023-02-16T11:01:47.275Z,101948.41
2023-02-16T11:04:40.262Z,101955.50
2023-02-16T11:07:10.756Z,101957.47
2023-02-16T11:09:39.929Z,101949.66
2023-02-16T11:12:26.716Z,101949.53
2023-02-16T11:14:57.758Z,101954.28
2023-02-16T11:17:26.257Z,101953.59
2023-02-16T11:19:56.178Z,101947.16
2023-02-16T11:22:36.897Z,101951.47
2023-02-16T11:25:24.509Z,101955.66
2023-02-16T11:27:54.941Z,101956.63
2023-02-16T11:30:32.563Z,101957.31
2023-02-16T11:33:02.719Z,101955.78
2023-02-16T11:35:32.838Z,101963.06
2023-02-16T11:38:01.016Z,101962.22
2023-02-16T11:40:32.610Z,101963.19
2023-02-16T11:43:02.439Z,101970.47
2023-02-16T11:45:34.552Z,101959.19
2023-02-16T11:48:05.912Z,101958.75
2023-02-16T11:50:38.447Z,101966.84
2023-02-16T11:53:16.949Z,101957.22
2023-02-16T11:55:46.786Z,101950.78
2023-02-16T11:58:17.778Z,101952.59
2023-02-16T12:00:57.619Z,101956.38
2023-02-16T12:04:01.265Z,101951.06
2023-02-16T12:06:39.999Z,101955.69
2023-02-16T12:09:17.020Z,101947.44
2023-02-16T12:11:56.600Z,101941.84
2023-02-16T12:14:36.680Z,101947.00
2023-02-16T12:17:19.880Z,101946.03
2023-02-16T12:19:49.725Z,101945.19
2023-02-16T12:22:29.072Z,101935.25
2023-02-16T12:25:14.007Z,101940.97
2023-02-16T12:27:49.375Z,101950.47
2023-02-16T12:30:29.008Z,101934.19
2023-02-16T12:33:13.040Z,101932.66
2023-02-16T12:35:57.318Z,101928.72
2023-02-16T12:38:39.701Z,101921.44
2023-02-16T12:41:22.094Z,101923.72
2023-02-16T12:43:54.734Z,101923.16
2023-02-16T12:46:28.176Z,101916.75
2023-02-16T12:49:01.156Z,101913.25
2023-02-16T12:51:36.435Z,101909.94
2023-02-16T12:54:10.767Z,101907.56
2023-02-16T12:56:43.202Z,101903.78
2023-02-16T12:59:21.299Z,101900.72
2023-02-16T13:01:53.229Z,101900.16
2023-02-16T13:04:27.178Z,101904.50
2023-02-16T13:07:02.948Z,101899.50
2023-02-16T13:09:38.874Z,101890.81
2023-02-16T13:12:12.178Z,101898.47
2023-02-16T13:14:44.861Z,101903.94
2023-02-16T13:17:16.966Z,101892.63
2023-02-16T13:19:47.719Z,101905.66
2023-02-16T13:22:43.192Z,101902.28
2023-02-16T13:25:30.910Z,101901.31
2023-02-16T13:28:12.179Z,101901.19
2023-02-16T13:31:06.722Z,101897.53
2023-02-16T13:33:52.765Z,101902.00
2023-02-16T13:36:57.352Z,101903.97
2023-02-16T13:39:47.469Z,101890.59
2023-02-16T13:42:35.526Z,101907.47
2023-02-16T13:45:05.927Z,101896.56
2023-02-16T13:47:38.478Z,101894.59
2023-02-16T13:50:09.330Z,101896.03
2023-02-16T13:52:41.767Z,101890.28
2023-02-16T13:55:24.411Z,101895.56
2023-02-16T13:58:00.218Z,101891.28
2023-02-16T14:00:31.653Z,101893.75
2023-02-16T14:03:02.108Z,101884.84
2023-02-16T14:05:34.128Z,101889.84
2023-02-16T14:08:21.635Z,101892.50
2023-02-16T14:11:08.674Z,101897.13
2023-02-16T14:13:49.787Z,101900.59
2023-02-16T14:16:32.996Z,101898.38
2023-02-16T14:19:04.623Z,101900.66
2023-02-16T14:21:38.128Z,101901.91
2023-02-16T14:24:12.885Z,101890.31
2023-02-16T14:26:56.258Z,101895.09
2023-02-16T14:29:28.073Z,101884.47
2023-02-16T14:32:01.277Z,101886.97
2023-02-16T14:34:32.173Z,101885.16
2023-02-16T14:37:32.641Z,101872.59
2023-02-16T14:40:20.655Z,101884.88
2023-02-16T14:42:53.498Z,101879.47
2023-02-16T14:45:51.550Z,101878.34
2023-02-16T14:48:33.191Z,101876.94
2023-02-16T14:51:43.871Z,101886.72
2023-02-16T14:54:57.420Z,101878.78
2023-02-16T14:57:31.394Z,101871.13
2023-02-16T15:00:03.149Z,101876.53
2023-02-16T15:02:33.710Z,101874.06
2023-02-16T15:05:17.753Z,101876.84
2023-02-16T15:07:47.537Z,101870.56
2023-02-16T15:10:15.897Z,101874.19
2023-02-16T15:12:45.614Z,101872.66
2023-02-16T15:15:20.252Z,101873.06
2023-02-16T15:17:49.212Z,101871.25
2023-02-16T15:20:24.853Z,101870.41
2023-02-16T15:22:53.792Z,101873.50
2023-02-16T15:25:25.016Z,101867.19
2023-02-16T15:28:00.277Z,101866.91
2023-02-16T15:30:31.001Z,101875.88
2023-02-16T15:33:01.207Z,101872.50
2023-02-16T15:35:34.221Z,101881.16
2023-02-16T15:38:09.027Z,101882.00
2023-02-16T15:40:37.489Z,101881.72
2023-02-16T15:43:11.312Z,101881.00
2023-02-16T15:45:39.300Z,101878.34
2023-02-16T15:48:21.920Z,101878.50
2023-02-16T15:50:51.669Z,101869.84
2023-02-16T15:53:28.145Z,101874.19
2023-02-16T15:55:56.241Z,101874.19
2023-02-16T15:58:25.276Z,101869.72
2023-02-16T16:00:54.199Z,101880.31
2023-02-16T16:03:23.333Z,101875.88
2023-02-16T16:05:59.595Z,101885.47
2023-02-16T16:08:29.791Z,101877.81
2023-02-16T16:10:57.886Z,101869.72
2023-02-16T16:13:29.851Z,101867.75
2023-02-16T16:16:01.727Z,101867.06
2023-02-16T16:18:43.162Z,101867.75
2023-02-16T16:21:24.649Z,101858.44
2023-02-16T16:24:01.520Z,101863.03
2023-02-16T16:26:35.123Z,101859.97
2023-02-16T16:29:04.916Z,101853.66
2023-02-16T16:31:42.113Z,101854.78
2023-02-16T16:34:12.953Z,101861.91
2023-02-16T16:36:47.484Z,101859.53
2023-02-16T16:39:25.456Z,101858.28
2023-02-16T16:42:16.829Z,101859.13
2023-02-16T16:44:55.294Z,101864.13
2023-02-16T16:47:27.209Z,101865.09
2023-02-16T16:49:57.011Z,101850.19
2023-02-16T16:52:43.644Z,101852.28
2023-02-16T16:55:38.080Z,101849.34
2023-02-16T16:58:08.131Z,101839.88
2023-02-16T17:00:42.240Z,101846.84
2023-02-16T17:03:14.784Z,101840.69
2023-02-16T17:05:43.733Z,101841.25
2023-02-16T17:08:12.395Z,101826.06
2023-02-16T17:10:41.866Z,101827.03
2023-02-16T17:13:14.987Z,101832.34
2023-02-16T17:15:48.887Z,101836.69
2023-02-16T17:18:18.352Z,101840.69
2023-02-16T17:20:47.177Z,101840.69
2023-02-16T17:23:16.665Z,101831.63
2023-02-16T17:25:44.567Z,101829.97
2023-02-16T17:28:14.003Z,101834.97
2023-02-16T17:30:42.731Z,101839.97
2023-02-16T17:33:12.369Z,101834.69
2023-02-16T17:35:42.441Z,101827.69
2023-02-16T17:38:11.790Z,101833.00
2023-02-16T17:40:41.157Z,101833.53
2023-02-16T17:43:13.607Z,101837.03
2023-02-16T17:45:41.329Z,101841.22
2023-02-16T17:48:11.860Z,101848.47
2023-02-16T17:50:40.763Z,101835.06
2023-02-16T17:53:12.686Z,101835.63
2023-02-16T17:55:40.539Z,101834.78
2023-02-16T17:58:08.202Z,101830.31
2023-02-16T18:00:36.793Z,101832.53
2023-02-16T18:03:04.418Z,101825.25
2023-02-16T18:05:32.052Z,101825.94
2023-02-16T18:08:01.391Z,101810.56
2023-02-16T18:10:35.483Z,101818.38
2023-02-16T18:13:03.399Z,101815.59
2023-02-16T18:15:31.082Z,101806.66
2023-02-16T18:17:59.275Z,101810.13
2023-02-16T18:20:27.600Z,101805.53
2023-02-16T18:22:55.441Z,101799.38
2023-02-16T18:25:25.087Z,101815.13
2023-02-16T18:27:53.227Z,101804.00
2023-02-16T18:30:21.223Z,101800.94
2023-02-16T18:32:48.887Z,101795.34
2023-02-16T18:35:17.441Z,101796.19
2023-02-16T18:37:46.322Z,101790.88
2023-02-16T18:40:16.651Z,101791.84
2023-02-16T18:42:45.945Z,101788.38
2023-02-16T18:45:13.779Z,101789.06
2023-02-16T18:47:41.418Z,101797.03
2023-02-16T18:50:10.010Z,101791.72
2023-02-16T18:52:37.650Z,101784.19
2023-02-16T18:55:05.627Z,101786.03
2023-02-16T18:57:33.232Z,101791.16
2023-02-16T19:00:02.388Z,101779.72
2023-02-16T19:02:30.162Z,101786.69
2023-02-16T19:04:57.793Z,101781.22
2023-02-16T19:07:25.418Z,101776.38
2023-02-16T19:09:53.098Z,101771.94
2023-02-16T19:12:20.843Z,101765.78
2023-02-16T19:14:48.450Z,101760.94
2023-02-16T19:17:17.539Z,101764.56
2023-02-16T19:19:45.157Z,101761.06
2023-02-16T19:22:12.748Z,101758.41
2023-02-16T19:24:40.446Z,101756.44
2023-02-16T19:27:08.074Z,101756.59
2023-02-16T19:29:35.689Z,101763.03
2023-02-16T19:32:03.353Z,101756.06
2023-02-16T19:34:33.431Z,101754.53
2023-02-16T19:37:01.117Z,101753.03
2023-02-16T19:39:28.736Z,101758.88
2023-02-16T19:41:56.380Z,101761.66
2023-02-16T19:44:24.026Z,101749.78
2023-02-16T19:46:51.714Z,101741.00
2023-02-16T19:49:19.992Z,101729.53
2023-02-16T19:51:49.321Z,101730.22
2023-02-16T19:54:16.982Z,101726.47
2023-02-16T19:56:44.646Z,101725.63
2023-02-16T19:59:12.258Z,101716.97
2023-02-16T20:01:40.016Z,101712.50
2023-02-16T20:04:07.698Z,101699.09
2023-02-16T20:06:39.136Z,101705.38
2023-02-16T20:09:09.314Z,101696.47
2023-02-16T20:11:45.058Z,101693.25
2023-02-16T20:14:13.200Z,101683.50
2023-02-16T20:16:40.887Z,101686.16
2023-02-16T20:19:08.598Z,101680.97
2023-02-16T20:21:36.298Z,101681.16
2023-02-16T20:24:06.063Z,101675.00
2023-02-16T20:26:35.481Z,101677.66
2023-02-16T20:29:05.583Z,101674.16
2023-02-16T20:31:35.696Z,101672.34
2023-02-16T20:34:04.168Z,101661.75
2023-02-16T20:36:32.324Z,101663.56
2023-02-16T20:38:59.981Z,101663.56
2023-02-16T20:41:27.873Z,101652.94
2023-02-16T20:43:55.499Z,101653.13
2023-02-16T20:46:25.988Z,101639.69
2023-02-16T20:48:53.965Z,101643.03
2023-02-16T20:51:21.997Z,101636.22
2023-02-16T20:53:49.662Z,101633.41
2023-02-16T20:56:20.682Z,101637.22
2023-02-16T20:58:50.464Z,101629.09
2023-02-16T21:01:21.548Z,101619.31
2023-02-16T21:03:51.150Z,101612.34
2023-02-16T21:06:19.658Z,101608.72
2023-02-16T21:08:47.544Z,101600.75
2023-02-16T21:11:15.806Z,101605.09
2023-02-16T21:13:43.871Z,101605.91
2023-02-16T21:16:12.037Z,101600.47
2023-02-16T21:18:40.670Z,101596.84
2023-02-16T21:21:15.217Z,101600.59
2023-02-16T21:23:43.121Z,101597.28
2023-02-16T21:26:10.750Z,101595.16
2023-02-16T21:28:38.813Z,101595.16
2023-02-16T21:31:09.706Z,101583.56
2023-02-16T21:33:38.230Z,101580.94
2023-02-16T21:36:07.394Z,101579.09
2023-02-16T21:38:37.353Z,101569.47
2023-02-16T21:41:23.347Z,101566.66
2023-02-16T21:43:52.921Z,101571.97
2023-02-16T21:46:20.487Z,101559.53
2023-02-16T21:48:47.532Z,101559.53
2023-02-16T21:51:18.491Z,101559.53
2023-02-16T21:53:48.269Z,101564.53
2023-02-16T21:56:27.045Z,101561.06
2023-02-16T21:58:54.778Z,101562.72
2023-02-16T22:01:24.669Z,101550.44
2023-02-16T22:03:56.085Z,101543.03
2023-02-16T22:06:25.225Z,101540.69
2023-02-16T22:08:54.727Z,101533.56
2023-02-16T22:11:22.608Z,101535.06
2023-02-16T22:13:54.575Z,101531.44
2023-02-16T22:16:22.214Z,101527.78
2023-02-16T22:18:50.140Z,101525.13
2023-02-16T22:21:18.262Z,101509.06
2023-02-16T22:23:45.820Z,101511.56
2023-02-16T22:26:25.260Z,101509.91
2023-02-16T22:28:53.413Z,101515.88
2023-02-16T22:31:23.158Z,101508.75
2023-02-16T22:33:56.402Z,101501.66
2023-02-16T22:36:23.999Z,101494.34
2023-02-16T22:38:53.097Z,101481.94
2023-02-16T22:41:22.679Z,101478.13
2023-02-16T22:43:53.891Z,101476.31
2023-02-16T22:46:21.775Z,101469.69
2023-02-16T22:48:49.437Z,101476.84
2023-02-16T22:51:18.042Z,101468.72
2023-02-16T22:53:45.732Z,101460.75
2023-02-16T22:56:17.322Z,101449.00
2023-02-16T22:58:46.793Z,101455.97
2023-02-16T23:01:16.083Z,101452.34
2023-02-16T23:03:44.016Z,101449.69
2023-02-16T23:06:14.532Z,101446.88
2023-02-16T23:08:42.542Z,101446.72
2023-02-16T23:11:10.200Z,101441.91
2023-02-16T23:13:38.203Z,101437.44
2023-02-16T23:16:08.985Z,101435.47
2023-02-16T23:18:36.674Z,101428.84
2023-02-16T23:21:08.818Z,101425.34
2023-02-16T23:23:36.524Z,101425.88
2023-02-16T23:26:06.386Z,101432.84
2023-02-16T23:28:34.230Z,101431.84
2023-02-16T23:31:02.091Z,101430.53
2023-02-16T23:33:31.146Z,101429.72
2023-02-16T23:35:59.455Z,101413.66
2023-02-16T23:38:27.176Z,101411.66
2023-02-16T23:40:58.672Z,101402.72
2023-02-16T23:43:26.399Z,101407.00
2023-02-16T23:45:54.775Z,101424.47
2023-02-16T23:48:23.056Z,101408.53
2023-02-16T23:50:53.006Z,101411.84
2023-02-16T23:53:21.734Z,101416.97
2023-02-16T23:55:57.775Z,101410.69
2023-02-16T23:58:27.155Z,101414.84
